Plain City, OH (43064)

11:19 AM EST on December 10, 2016 (GMT -0500)
near Glacier Ridge Metro Park | | Change Station

Elev 896 ft 40.14 °N, 83.19 °W | Updated 8 seconds ago

Overcast
Overcast
25.2 °F
Feels Like 25 °F
N
1.1
Wind Variable Wind from West
Gusts 2.5 mph

Today
High -- | Low -- °F
--% Chance of Precip.
Yesterday
High -- | Low -- °F
Precip. -- in
Pressure 30.53 in
Visibility 10.0 miles
Clouds Overcast 2700 ft
Windchill 25 °F
Dew Point 10 °F
Humidity 52%
Rainfall 0.00 in
Snow Depth Not available.
7:44 AM 5:07 PM
Waxing Gibbous, 84% visible
METAR KMRT 101613Z AUTO 29007KT 10SM OVC027 M04/M09 A3053 RMK AO2 T10371090
Pressure 30.53 in
Visibility 10.0 miles
Clouds Overcast 2700 ft
Windchill 25 °F
Dew Point 10 °F
Humidity 52%
Rainfall 0.00 in
Snow Depth Not available.
7:44 AM 5:07 PM
Waxing Gibbous, 84% visible
METAR KMRT 101613Z AUTO 29007KT 10SM OVC027 M04/M09 A3053 RMK AO2 T10371090

10-Day Weather Forecast

Almanac

Astronomy

Dec. 10, 2016 Rise Set
Actual Time
Civil Twilight
Nautical Twilight
Astronomical Twilight
Moon
Length of Visible Light
Length of Day
Tomorrow will be .
, % of the Moon is Illuminated

Today's Extremes

State Highs State Lows

Community

WunderPhotos

Upload Photos

1,956,569 photos uploaded!

WunderBlog® & News

Nearby

Air Quality

  Air Quality AQ Index Pollutant
Not available.

Snow Depth

Station Depth Elevation

Earthquake Activity

City Distance Mag. Time & Date
Minimum magnitude displayed is 2.5.

Coastal Water Temperatures

Place Temperature

Stations

Nearby Weather Stations

Station Location Temp. Windchill Dew Point Humidity Wind Precip. Elev Updated Type
                   

Watches & Warnings

There are currently no watches in effect.